sensor_id;sensor_type;location;lat;lon;timestamp;P1;durP1;ratioP1;P2;durP2;ratioP2
82990;SDS011;72806;50.832;4.864;2023-11-21T00:01:32;54.78;;;24.15;;
82990;SDS011;72806;50.832;4.864;2023-11-21T00:03:59;56.58;;;23.27;;
82990;SDS011;72806;50.832;4.864;2023-11-21T00:06:26;53.55;;;23.38;;
82990;SDS011;72806;50.832;4.864;2023-11-21T00:08:56;61.55;;;24.00;;
82990;SDS011;72806;50.832;4.864;2023-11-21T00:11:23;58.15;;;24.42;;
82990;SDS011;72806;50.832;4.864;2023-11-21T00:13:50;54.45;;;23.55;;
82990;SDS011;72806;50.832;4.864;2023-11-21T00:16:17;67.18;;;25.45;;
82990;SDS011;72806;50.832;4.864;2023-11-21T00:18:45;62.60;;;25.77;;
82990;SDS011;72806;50.832;4.864;2023-11-21T00:21:12;64.15;;;24.90;;
82990;SDS011;72806;50.832;4.864;2023-11-21T00:23:40;60.25;;;23.85;;
82990;SDS011;72806;50.832;4.864;2023-11-21T00:26:07;56.70;;;24.13;;
82990;SDS011;72806;50.832;4.864;2023-11-21T00:28:34;57.35;;;24.20;;
82990;SDS011;72806;50.832;4.864;2023-11-21T00:31:01;59.13;;;24.20;;
82990;SDS011;72806;50.832;4.864;2023-11-21T00:33:29;54.65;;;25.13;;
82990;SDS011;72806;50.832;4.864;2023-11-21T00:35:58;55.30;;;23.88;;
82990;SDS011;72806;50.832;4.864;2023-11-21T00:38:25;59.38;;;25.45;;
82990;SDS011;72806;50.832;4.864;2023-11-21T00:40:52;56.25;;;24.88;;
82990;SDS011;72806;50.832;4.864;2023-11-21T00:43:21;48.35;;;23.27;;
82990;SDS011;72806;50.832;4.864;2023-11-21T00:45:48;58.40;;;24.58;;
82990;SDS011;72806;50.832;4.864;2023-11-21T00:48:15;60.70;;;24.48;;
82990;SDS011;72806;50.832;4.864;2023-11-21T00:50:43;49.67;;;23.17;;
82990;SDS011;72806;50.832;4.864;2023-11-21T00:53:11;53.90;;;25.08;;
82990;SDS011;72806;50.832;4.864;2023-11-21T00:55:38;50.88;;;22.90;;
82990;SDS011;72806;50.832;4.864;2023-11-21T00:58:05;59.83;;;24.50;;
82990;SDS011;72806;50.832;4.864;2023-11-21T01:00:32;58.15;;;23.90;;
82990;SDS011;72806;50.832;4.864;2023-11-21T01:03:00;59.05;;;22.95;;
82990;SDS011;72806;50.832;4.864;2023-11-21T01:05:27;63.05;;;23.67;;
82990;SDS011;72806;50.832;4.864;2023-11-21T01:07:54;65.05;;;22.98;;
82990;SDS011;72806;50.832;4.864;2023-11-21T01:10:23;54.05;;;22.15;;
82990;SDS011;72806;50.832;4.864;2023-11-21T01:12:49;64.00;;;23.70;;
82990;SDS011;72806;50.832;4.864;2023-11-21T01:15:16;55.35;;;21.65;;
82990;SDS011;72806;50.832;4.864;2023-11-21T01:17:43;52.70;;;21.83;;
82990;SDS011;72806;50.832;4.864;2023-11-21T01:20:11;55.75;;;21.20;;
82990;SDS011;72806;50.832;4.864;2023-11-21T01:22:38;58.50;;;21.45;;
82990;SDS011;72806;50.832;4.864;2023-11-21T01:25:05;52.05;;;19.50;;
82990;SDS011;72806;50.832;4.864;2023-11-21T01:27:34;47.00;;;19.30;;
82990;SDS011;72806;50.832;4.864;2023-11-21T01:30:02;43.80;;;19.73;;
82990;SDS011;72806;50.832;4.864;2023-11-21T01:32:31;51.88;;;20.73;;
82990;SDS011;72806;50.832;4.864;2023-11-21T01:34:59;44.65;;;19.40;;
82990;SDS011;72806;50.832;4.864;2023-11-21T01:37:26;39.95;;;18.38;;
82990;SDS011;72806;50.832;4.864;2023-11-21T01:39:53;48.65;;;19.15;;
82990;SDS011;72806;50.832;4.864;2023-11-21T01:42:21;49.90;;;19.95;;
82990;SDS011;72806;50.832;4.864;2023-11-21T01:44:50;56.55;;;19.85;;
82990;SDS011;72806;50.832;4.864;2023-11-21T01:47:17;59.53;;;19.58;;
82990;SDS011;72806;50.832;4.864;2023-11-21T01:49:44;64.13;;;19.77;;
82990;SDS011;72806;50.832;4.864;2023-11-21T01:52:12;63.80;;;19.80;;
82990;SDS011;72806;50.832;4.864;2023-11-21T01:54:40;66.18;;;20.27;;
82990;SDS011;72806;50.832;4.864;2023-11-21T01:57:08;64.25;;;19.63;;
82990;SDS011;72806;50.832;4.864;2023-11-21T01:59:36;61.92;;;19.60;;
82990;SDS011;72806;50.832;4.864;2023-11-21T02:02:05;52.90;;;17.70;;
82990;SDS011;72806;50.832;4.864;2023-11-21T02:04:32;53.35;;;17.85;;
82990;SDS011;72806;50.832;4.864;2023-11-21T02:06:59;50.88;;;16.92;;
82990;SDS011;72806;50.832;4.864;2023-11-21T02:09:27;55.78;;;17.73;;
82990;SDS011;72806;50.832;4.864;2023-11-21T02:11:56;57.40;;;18.60;;
82990;SDS011;72806;50.832;4.864;2023-11-21T02:14:24;56.00;;;19.58;;
82990;SDS011;72806;50.832;4.864;2023-11-21T02:16:52;57.67;;;20.17;;
82990;SDS011;72806;50.832;4.864;2023-11-21T02:19:21;64.75;;;18.15;;
82990;SDS011;72806;50.832;4.864;2023-11-21T02:21:49;60.03;;;19.40;;
82990;SDS011;72806;50.832;4.864;2023-11-21T02:24:20;62.88;;;18.10;;
82990;SDS011;72806;50.832;4.864;2023-11-21T02:26:47;65.25;;;18.75;;
82990;SDS011;72806;50.832;4.864;2023-11-21T02:29:16;80.70;;;19.15;;
82990;SDS011;72806;50.832;4.864;2023-11-21T02:31:47;67.25;;;19.33;;
82990;SDS011;72806;50.832;4.864;2023-11-21T02:34:14;61.15;;;19.10;;
82990;SDS011;72806;50.832;4.864;2023-11-21T02:36:42;73.35;;;19.88;;
82990;SDS011;72806;50.832;4.864;2023-11-21T02:39:09;73.60;;;20.70;;
82990;SDS011;72806;50.832;4.864;2023-11-21T02:44:06;71.18;;;20.52;;
82990;SDS011;72806;50.832;4.864;2023-11-21T02:46:33;69.88;;;20.45;;
82990;SDS011;72806;50.832;4.864;2023-11-21T02:49:01;60.95;;;20.08;;
82990;SDS011;72806;50.832;4.864;2023-11-21T02:51:28;57.00;;;18.92;;
82990;SDS011;72806;50.832;4.864;2023-11-21T02:53:55;52.33;;;19.75;;
82990;SDS011;72806;50.832;4.864;2023-11-21T02:56:24;65.20;;;20.02;;
82990;SDS011;72806;50.832;4.864;2023-11-21T02:58:54;60.97;;;19.75;;
82990;SDS011;72806;50.832;4.864;2023-11-21T03:01:23;64.50;;;19.92;;
82990;SDS011;72806;50.832;4.864;2023-11-21T03:03:50;70.32;;;20.65;;
82990;SDS011;72806;50.832;4.864;2023-11-21T03:06:17;74.03;;;19.60;;
82990;SDS011;72806;50.832;4.864;2023-11-21T03:08:44;84.03;;;20.35;;
82990;SDS011;72806;50.832;4.864;2023-11-21T03:11:12;64.45;;;18.13;;
82990;SDS011;72806;50.832;4.864;2023-11-21T03:13:39;74.40;;;19.20;;
82990;SDS011;72806;50.832;4.864;2023-11-21T03:16:09;87.63;;;21.02;;
82990;SDS011;72806;50.832;4.864;2023-11-21T03:18:36;63.58;;;19.58;;
82990;SDS011;72806;50.832;4.864;2023-11-21T03:21:03;63.17;;;18.45;;
82990;SDS011;72806;50.832;4.864;2023-11-21T03:23:31;96.93;;;20.15;;
82990;SDS011;72806;50.832;4.864;2023-11-21T03:25:58;65.82;;;17.73;;
82990;SDS011;72806;50.832;4.864;2023-11-21T03:28:25;63.38;;;17.80;;
82990;SDS011;72806;50.832;4.864;2023-11-21T03:30:52;86.38;;;17.15;;
82990;SDS011;72806;50.832;4.864;2023-11-21T03:33:21;67.65;;;16.00;;
82990;SDS011;72806;50.832;4.864;2023-11-21T03:35:48;71.72;;;19.45;;
82990;SDS011;72806;50.832;4.864;2023-11-21T03:38:15;81.65;;;19.38;;
82990;SDS011;72806;50.832;4.864;2023-11-21T03:40:42;66.05;;;19.02;;
82990;SDS011;72806;50.832;4.864;2023-11-21T03:43:09;80.45;;;18.90;;
82990;SDS011;72806;50.832;4.864;2023-11-21T03:45:36;92.38;;;19.35;;
82990;SDS011;72806;50.832;4.864;2023-11-21T03:48:05;85.00;;;18.35;;
82990;SDS011;72806;50.832;4.864;2023-11-21T03:50:34;107.00;;;20.27;;
82990;SDS011;72806;50.832;4.864;2023-11-21T03:53:00;86.43;;;17.80;;
82990;SDS011;72806;50.832;4.864;2023-11-21T03:55:28;78.63;;;19.77;;
82990;SDS011;72806;50.832;4.864;2023-11-21T03:57:56;92.00;;;19.58;;
82990;SDS011;72806;50.832;4.864;2023-11-21T04:00:24;78.38;;;20.30;;
82990;SDS011;72806;50.832;4.864;2023-11-21T04:02:52;68.72;;;18.95;;
82990;SDS011;72806;50.832;4.864;2023-11-21T04:05:19;77.07;;;19.08;;
82990;SDS011;72806;50.832;4.864;2023-11-21T04:07:48;66.65;;;18.10;;
82990;SDS011;72806;50.832;4.864;2023-11-21T04:10:15;71.57;;;18.08;;
82990;SDS011;72806;50.832;4.864;2023-11-21T04:12:42;74.10;;;18.50;;
82990;SDS011;72806;50.832;4.864;2023-11-21T04:15:10;70.68;;;18.60;;
82990;SDS011;72806;50.832;4.864;2023-11-21T04:17:38;71.20;;;18.17;;
82990;SDS011;72806;50.832;4.864;2023-11-21T04:20:06;75.50;;;18.13;;
82990;SDS011;72806;50.832;4.864;2023-11-21T04:22:36;67.97;;;18.13;;
82990;SDS011;72806;50.832;4.864;2023-11-21T04:25:07;70.30;;;18.48;;
82990;SDS011;72806;50.832;4.864;2023-11-21T04:27:34;67.88;;;17.65;;
82990;SDS011;72806;50.832;4.864;2023-11-21T04:30:01;78.15;;;18.13;;
82990;SDS011;72806;50.832;4.864;2023-11-21T04:32:28;70.57;;;18.35;;
82990;SDS011;72806;50.832;4.864;2023-11-21T04:34:55;80.80;;;18.48;;
82990;SDS011;72806;50.832;4.864;2023-11-21T04:37:22;75.38;;;19.75;;
82990;SDS011;72806;50.832;4.864;2023-11-21T04:39:50;75.22;;;18.30;;
82990;SDS011;72806;50.832;4.864;2023-11-21T04:42:18;74.57;;;18.40;;
82990;SDS011;72806;50.832;4.864;2023-11-21T04:44:45;64.07;;;17.75;;
82990;SDS011;72806;50.832;4.864;2023-11-21T04:47:12;68.05;;;18.02;;
82990;SDS011;72806;50.832;4.864;2023-11-21T04:49:41;70.07;;;17.80;;
82990;SDS011;72806;50.832;4.864;2023-11-21T04:52:08;60.55;;;18.42;;
82990;SDS011;72806;50.832;4.864;2023-11-21T04:54:36;68.70;;;17.90;;
82990;SDS011;72806;50.832;4.864;2023-11-21T04:57:03;70.85;;;19.35;;
82990;SDS011;72806;50.832;4.864;2023-11-21T04:59:33;71.22;;;18.55;;
82990;SDS011;72806;50.832;4.864;2023-11-21T05:02:00;59.25;;;17.35;;
82990;SDS011;72806;50.832;4.864;2023-11-21T05:04:28;65.10;;;18.20;;
82990;SDS011;72806;50.832;4.864;2023-11-21T05:06:55;61.78;;;17.65;;
82990;SDS011;72806;50.832;4.864;2023-11-21T05:09:22;75.30;;;17.85;;
82990;SDS011;72806;50.832;4.864;2023-11-21T05:11:49;71.30;;;18.60;;
82990;SDS011;72806;50.832;4.864;2023-11-21T05:14:16;58.53;;;17.92;;
82990;SDS011;72806;50.832;4.864;2023-11-21T05:16:46;47.42;;;16.98;;
82990;SDS011;72806;50.832;4.864;2023-11-21T05:19:13;56.05;;;17.33;;
82990;SDS011;72806;50.832;4.864;2023-11-21T05:21:40;54.58;;;14.85;;
82990;SDS011;72806;50.832;4.864;2023-11-21T05:24:07;52.42;;;17.38;;
82990;SDS011;72806;50.832;4.864;2023-11-21T05:26:34;62.88;;;16.83;;
82990;SDS011;72806;50.832;4.864;2023-11-21T05:29:01;51.83;;;17.50;;
82990;SDS011;72806;50.832;4.864;2023-11-21T05:31:28;51.53;;;17.13;;
82990;SDS011;72806;50.832;4.864;2023-11-21T05:33:57;51.08;;;17.23;;
82990;SDS011;72806;50.832;4.864;2023-11-21T05:36:25;53.22;;;16.38;;
82990;SDS011;72806;50.832;4.864;2023-11-21T05:38:52;42.50;;;15.80;;
82990;SDS011;72806;50.832;4.864;2023-11-21T05:41:19;58.00;;;17.20;;
82990;SDS011;72806;50.832;4.864;2023-11-21T05:43:47;55.90;;;16.88;;
82990;SDS011;72806;50.832;4.864;2023-11-21T05:46:14;52.00;;;16.60;;
82990;SDS011;72806;50.832;4.864;2023-11-21T05:48:41;51.38;;;15.75;;
82990;SDS011;72806;50.832;4.864;2023-11-21T05:51:10;53.55;;;18.25;;
82990;SDS011;72806;50.832;4.864;2023-11-21T05:53:37;46.92;;;16.90;;
82990;SDS011;72806;50.832;4.864;2023-11-21T05:56:05;57.00;;;17.10;;
82990;SDS011;72806;50.832;4.864;2023-11-21T05:58:32;54.08;;;16.27;;
82990;SDS011;72806;50.832;4.864;2023-11-21T06:00:59;51.63;;;16.50;;
82990;SDS011;72806;50.832;4.864;2023-11-21T06:03:26;53.45;;;16.65;;
82990;SDS011;72806;50.832;4.864;2023-11-21T06:05:53;57.40;;;16.02;;
82990;SDS011;72806;50.832;4.864;2023-11-21T06:08:21;55.88;;;17.27;;
82990;SDS011;72806;50.832;4.864;2023-11-21T06:10:49;54.63;;;15.50;;
82990;SDS011;72806;50.832;4.864;2023-11-21T06:13:16;52.00;;;16.98;;
82990;SDS011;72806;50.832;4.864;2023-11-21T06:15:45;50.00;;;15.77;;
82990;SDS011;72806;50.832;4.864;2023-11-21T06:18:12;44.95;;;15.60;;
82990;SDS011;72806;50.832;4.864;2023-11-21T06:20:39;46.08;;;15.45;;
82990;SDS011;72806;50.832;4.864;2023-11-21T06:23:07;41.28;;;14.13;;
82990;SDS011;72806;50.832;4.864;2023-11-21T06:25:35;34.17;;;14.98;;
82990;SDS011;72806;50.832;4.864;2023-11-21T06:28:03;42.08;;;16.95;;
82990;SDS011;72806;50.832;4.864;2023-11-21T06:30:30;43.35;;;16.30;;
82990;SDS011;72806;50.832;4.864;2023-11-21T06:32:57;46.10;;;15.65;;
82990;SDS011;72806;50.832;4.864;2023-11-21T06:35:24;48.40;;;16.98;;
82990;SDS011;72806;50.832;4.864;2023-11-21T06:37:52;46.65;;;15.98;;
82990;SDS011;72806;50.832;4.864;2023-11-21T06:40:19;43.10;;;15.55;;
82990;SDS011;72806;50.832;4.864;2023-11-21T06:42:48;39.00;;;15.45;;
82990;SDS011;72806;50.832;4.864;2023-11-21T06:45:15;37.13;;;14.00;;
82990;SDS011;72806;50.832;4.864;2023-11-21T06:47:42;44.38;;;14.52;;
82990;SDS011;72806;50.832;4.864;2023-11-21T06:50:10;42.22;;;15.40;;
82990;SDS011;72806;50.832;4.864;2023-11-21T06:52:37;48.53;;;15.75;;
82990;SDS011;72806;50.832;4.864;2023-11-21T06:55:04;45.15;;;15.43;;
82990;SDS011;72806;50.832;4.864;2023-11-21T06:57:33;42.58;;;15.13;;
82990;SDS011;72806;50.832;4.864;2023-11-21T07:00:01;42.88;;;13.82;;
82990;SDS011;72806;50.832;4.864;2023-11-21T07:02:29;52.83;;;15.48;;
82990;SDS011;72806;50.832;4.864;2023-11-21T07:04:56;50.67;;;15.38;;
82990;SDS011;72806;50.832;4.864;2023-11-21T07:07:23;50.28;;;15.55;;
82990;SDS011;72806;50.832;4.864;2023-11-21T07:09:50;56.33;;;15.93;;
82990;SDS011;72806;50.832;4.864;2023-11-21T07:12:17;53.40;;;15.90;;
82990;SDS011;72806;50.832;4.864;2023-11-21T07:14:44;53.60;;;16.50;;
82990;SDS011;72806;50.832;4.864;2023-11-21T07:17:12;60.58;;;16.17;;
82990;SDS011;72806;50.832;4.864;2023-11-21T07:19:39;59.00;;;16.70;;
82990;SDS011;72806;50.832;4.864;2023-11-21T07:22:06;53.25;;;15.50;;
82990;SDS011;72806;50.832;4.864;2023-11-21T07:24:37;52.85;;;15.07;;
82990;SDS011;72806;50.832;4.864;2023-11-21T07:27:04;48.28;;;15.68;;
82990;SDS011;72806;50.832;4.864;2023-11-21T07:29:31;53.80;;;16.05;;
82990;SDS011;72806;50.832;4.864;2023-11-21T07:31:58;49.92;;;15.23;;
82990;SDS011;72806;50.832;4.864;2023-11-21T07:34:27;49.95;;;15.65;;
82990;SDS011;72806;50.832;4.864;2023-11-21T07:36:54;46.60;;;15.00;;
82990;SDS011;72806;50.832;4.864;2023-11-21T07:39:20;53.60;;;16.20;;
82990;SDS011;72806;50.832;4.864;2023-11-21T07:41:47;51.28;;;16.35;;
82990;SDS011;72806;50.832;4.864;2023-11-21T07:44:16;51.47;;;15.77;;
82990;SDS011;72806;50.832;4.864;2023-11-21T07:46:44;54.28;;;16.23;;
82990;SDS011;72806;50.832;4.864;2023-11-21T07:49:12;58.72;;;16.35;;
82990;SDS011;72806;50.832;4.864;2023-11-21T07:51:42;47.63;;;15.98;;
82990;SDS011;72806;50.832;4.864;2023-11-21T07:54:10;46.88;;;15.90;;
82990;SDS011;72806;50.832;4.864;2023-11-21T07:56:37;53.80;;;17.17;;
82990;SDS011;72806;50.832;4.864;2023-11-21T07:59:04;38.53;;;15.50;;
82990;SDS011;72806;50.832;4.864;2023-11-21T08:01:31;53.40;;;15.90;;
82990;SDS011;72806;50.832;4.864;2023-11-21T08:03:58;46.00;;;16.42;;
82990;SDS011;72806;50.832;4.864;2023-11-21T08:06:28;48.50;;;15.82;;
82990;SDS011;72806;50.832;4.864;2023-11-21T08:08:57;51.67;;;15.93;;
82990;SDS011;72806;50.832;4.864;2023-11-21T08:11:24;39.13;;;15.13;;
82990;SDS011;72806;50.832;4.864;2023-11-21T08:13:51;48.40;;;15.18;;
82990;SDS011;72806;50.832;4.864;2023-11-21T08:16:18;47.70;;;15.18;;
82990;SDS011;72806;50.832;4.864;2023-11-21T08:18:45;48.97;;;15.65;;
82990;SDS011;72806;50.832;4.864;2023-11-21T08:21:12;43.45;;;14.82;;
82990;SDS011;72806;50.832;4.864;2023-11-21T08:23:39;38.47;;;15.05;;
82990;SDS011;72806;50.832;4.864;2023-11-21T08:26:08;43.92;;;15.02;;
82990;SDS011;72806;50.832;4.864;2023-11-21T08:28:35;42.50;;;15.05;;
82990;SDS011;72806;50.832;4.864;2023-11-21T08:31:02;37.95;;;14.85;;
82990;SDS011;72806;50.832;4.864;2023-11-21T08:33:29;36.45;;;14.70;;
82990;SDS011;72806;50.832;4.864;2023-11-21T08:35:56;39.58;;;15.05;;
82990;SDS011;72806;50.832;4.864;2023-11-21T08:38:23;37.03;;;15.73;;
82990;SDS011;72806;50.832;4.864;2023-11-21T08:40:50;42.58;;;15.70;;
82990;SDS011;72806;50.832;4.864;2023-11-21T08:43:18;43.85;;;16.33;;
82990;SDS011;72806;50.832;4.864;2023-11-21T08:45:45;36.25;;;15.48;;
82990;SDS011;72806;50.832;4.864;2023-11-21T08:48:12;36.28;;;15.05;;
82990;SDS011;72806;50.832;4.864;2023-11-21T08:50:39;38.42;;;16.10;;
82990;SDS011;72806;50.832;4.864;2023-11-21T08:53:06;37.58;;;15.45;;
82990;SDS011;72806;50.832;4.864;2023-11-21T08:55:33;42.08;;;15.10;;
82990;SDS011;72806;50.832;4.864;2023-11-21T08:58:02;42.85;;;14.80;;
82990;SDS011;72806;50.832;4.864;2023-11-21T09:00:32;41.63;;;15.23;;
82990;SDS011;72806;50.832;4.864;2023-11-21T09:03:00;46.40;;;15.93;;
82990;SDS011;72806;50.832;4.864;2023-11-21T09:05:28;40.88;;;15.25;;
82990;SDS011;72806;50.832;4.864;2023-11-21T09:07:55;40.30;;;15.52;;
82990;SDS011;72806;50.832;4.864;2023-11-21T09:10:22;35.95;;;15.80;;
82990;SDS011;72806;50.832;4.864;2023-11-21T09:12:50;40.38;;;15.63;;
82990;SDS011;72806;50.832;4.864;2023-11-21T09:15:18;42.28;;;16.83;;
82990;SDS011;72806;50.832;4.864;2023-11-21T09:17:46;46.63;;;16.75;;
82990;SDS011;72806;50.832;4.864;2023-11-21T09:20:14;39.80;;;15.90;;
82990;SDS011;72806;50.832;4.864;2023-11-21T09:22:41;41.97;;;16.20;;
82990;SDS011;72806;50.832;4.864;2023-11-21T09:25:09;42.42;;;16.60;;
82990;SDS011;72806;50.832;4.864;2023-11-21T09:27:37;42.78;;;15.50;;
82990;SDS011;72806;50.832;4.864;2023-11-21T09:30:05;46.30;;;16.48;;
82990;SDS011;72806;50.832;4.864;2023-11-21T09:32:35;45.58;;;16.88;;
82990;SDS011;72806;50.832;4.864;2023-11-21T09:35:04;40.63;;;17.73;;
82990;SDS011;72806;50.832;4.864;2023-11-21T09:37:33;35.97;;;16.63;;
82990;SDS011;72806;50.832;4.864;2023-11-21T09:40:01;34.50;;;14.95;;
82990;SDS011;72806;50.832;4.864;2023-11-21T09:42:30;41.50;;;16.60;;
82990;SDS011;72806;50.832;4.864;2023-11-21T09:45:03;40.38;;;16.27;;
82990;SDS011;72806;50.832;4.864;2023-11-21T09:47:38;45.47;;;18.23;;
82990;SDS011;72806;50.832;4.864;2023-11-21T09:50:07;45.38;;;17.73;;
82990;SDS011;72806;50.832;4.864;2023-11-21T09:52:38;51.03;;;18.05;;
82990;SDS011;72806;50.832;4.864;2023-11-21T09:55:15;40.85;;;17.58;;
82990;SDS011;72806;50.832;4.864;2023-11-21T09:57:46;39.55;;;17.40;;
82990;SDS011;72806;50.832;4.864;2023-11-21T10:00:15;44.22;;;17.75;;
82990;SDS011;72806;50.832;4.864;2023-11-21T10:02:45;44.25;;;19.58;;
82990;SDS011;72806;50.832;4.864;2023-11-21T10:05:16;44.58;;;18.92;;
82990;SDS011;72806;50.832;4.864;2023-11-21T10:07:47;43.35;;;17.25;;
82990;SDS011;72806;50.832;4.864;2023-11-21T10:10:16;50.15;;;18.05;;
82990;SDS011;72806;50.832;4.864;2023-11-21T10:12:48;46.72;;;19.10;;
82990;SDS011;72806;50.832;4.864;2023-11-21T10:15:18;52.58;;;20.42;;
82990;SDS011;72806;50.832;4.864;2023-11-21T10:17:48;49.33;;;20.13;;
82990;SDS011;72806;50.832;4.864;2023-11-21T10:20:19;47.00;;;18.45;;
82990;SDS011;72806;50.832;4.864;2023-11-21T10:22:47;56.45;;;21.17;;
82990;SDS011;72806;50.832;4.864;2023-11-21T10:25:13;52.35;;;20.05;;
82990;SDS011;72806;50.832;4.864;2023-11-21T10:27:41;48.85;;;21.15;;
82990;SDS011;72806;50.832;4.864;2023-11-21T10:30:08;51.85;;;20.88;;
82990;SDS011;72806;50.832;4.864;2023-11-21T10:32:37;52.95;;;20.50;;
82990;SDS011;72806;50.832;4.864;2023-11-21T10:35:05;45.88;;;19.38;;
82990;SDS011;72806;50.832;4.864;2023-11-21T10:37:36;50.03;;;19.52;;
82990;SDS011;72806;50.832;4.864;2023-11-21T10:40:05;58.72;;;20.58;;
82990;SDS011;72806;50.832;4.864;2023-11-21T10:42:37;53.97;;;20.13;;
82990;SDS011;72806;50.832;4.864;2023-11-21T10:45:04;48.15;;;19.80;;
82990;SDS011;72806;50.832;4.864;2023-11-21T10:47:37;51.05;;;20.58;;
82990;SDS011;72806;50.832;4.864;2023-11-21T10:50:05;50.05;;;19.45;;
82990;SDS011;72806;50.832;4.864;2023-11-21T10:52:37;52.92;;;20.80;;
82990;SDS011;72806;50.832;4.864;2023-11-21T10:55:15;45.10;;;18.83;;
82990;SDS011;72806;50.832;4.864;2023-11-21T10:57:44;46.10;;;19.02;;
82990;SDS011;72806;50.832;4.864;2023-11-21T11:00:14;41.15;;;17.95;;
82990;SDS011;72806;50.832;4.864;2023-11-21T11:02:45;45.03;;;17.80;;
82990;SDS011;72806;50.832;4.864;2023-11-21T11:05:14;38.22;;;17.00;;
82990;SDS011;72806;50.832;4.864;2023-11-21T11:07:46;37.75;;;17.25;;
82990;SDS011;72806;50.832;4.864;2023-11-21T11:10:19;33.13;;;15.13;;
82990;SDS011;72806;50.832;4.864;2023-11-21T11:12:48;40.15;;;18.10;;
82990;SDS011;72806;50.832;4.864;2023-11-21T11:15:17;40.42;;;17.73;;
82990;SDS011;72806;50.832;4.864;2023-11-21T11:17:45;33.33;;;15.85;;
82990;SDS011;72806;50.832;4.864;2023-11-21T11:20:13;31.55;;;15.05;;
82990;SDS011;72806;50.832;4.864;2023-11-21T11:22:43;34.92;;;16.38;;
82990;SDS011;72806;50.832;4.864;2023-11-21T11:28:11;34.85;;;15.35;;
82990;SDS011;72806;50.832;4.864;2023-11-21T11:30:47;34.35;;;16.00;;
82990;SDS011;72806;50.832;4.864;2023-11-21T11:33:26;32.95;;;14.95;;
82990;SDS011;72806;50.832;4.864;2023-11-21T11:36:02;29.38;;;14.95;;
82990;SDS011;72806;50.832;4.864;2023-11-21T11:38:34;33.55;;;15.73;;
82990;SDS011;72806;50.832;4.864;2023-11-21T11:41:02;30.77;;;14.77;;
82990;SDS011;72806;50.832;4.864;2023-11-21T11:43:30;33.47;;;14.30;;
82990;SDS011;72806;50.832;4.864;2023-11-21T11:46:05;33.72;;;14.60;;
82990;SDS011;72806;50.832;4.864;2023-11-21T11:48:34;31.63;;;14.95;;
82990;SDS011;72806;50.832;4.864;2023-11-21T11:51:05;32.30;;;15.18;;
82990;SDS011;72806;50.832;4.864;2023-11-21T11:53:41;34.30;;;15.35;;
82990;SDS011;72806;50.832;4.864;2023-11-21T11:56:23;38.53;;;15.45;;
82990;SDS011;72806;50.832;4.864;2023-11-21T11:58:52;31.48;;;14.90;;
82990;SDS011;72806;50.832;4.864;2023-11-21T12:01:20;34.15;;;15.07;;
82990;SDS011;72806;50.832;4.864;2023-11-21T12:07:00;32.20;;;13.65;;
82990;SDS011;72806;50.832;4.864;2023-11-21T12:09:30;29.70;;;14.90;;
82990;SDS011;72806;50.832;4.864;2023-11-21T12:11:58;31.98;;;13.57;;
82990;SDS011;72806;50.832;4.864;2023-11-21T12:14:26;27.08;;;13.13;;
82990;SDS011;72806;50.832;4.864;2023-11-21T12:16:54;32.95;;;14.32;;
82990;SDS011;72806;50.832;4.864;2023-11-21T12:19:21;28.50;;;13.85;;
82990;SDS011;72806;50.832;4.864;2023-11-21T12:21:49;22.75;;;12.70;;
82990;SDS011;72806;50.832;4.864;2023-11-21T12:24:17;22.65;;;12.65;;
82990;SDS011;72806;50.832;4.864;2023-11-21T12:26:45;27.05;;;13.63;;
82990;SDS011;72806;50.832;4.864;2023-11-21T12:29:13;19.05;;;9.75;;
82990;SDS011;72806;50.832;4.864;2023-11-21T12:31:41;20.50;;;11.30;;
82990;SDS011;72806;50.832;4.864;2023-11-21T12:34:09;21.13;;;11.93;;
82990;SDS011;72806;50.832;4.864;2023-11-21T12:36:37;21.50;;;11.63;;
82990;SDS011;72806;50.832;4.864;2023-11-21T12:39:05;20.50;;;11.25;;
82990;SDS011;72806;50.832;4.864;2023-11-21T12:41:34;22.05;;;11.45;;
82990;SDS011;72806;50.832;4.864;2023-11-21T12:44:02;17.73;;;10.07;;
82990;SDS011;72806;50.832;4.864;2023-11-21T12:46:29;13.85;;;8.98;;
82990;SDS011;72806;50.832;4.864;2023-11-21T12:48:59;16.55;;;9.07;;
82990;SDS011;72806;50.832;4.864;2023-11-21T12:51:26;17.67;;;9.60;;
82990;SDS011;72806;50.832;4.864;2023-11-21T12:53:54;14.00;;;8.70;;
82990;SDS011;72806;50.832;4.864;2023-11-21T12:56:23;12.50;;;9.00;;
82990;SDS011;72806;50.832;4.864;2023-11-21T12:58:53;14.68;;;8.52;;
82990;SDS011;72806;50.832;4.864;2023-11-21T13:01:26;13.52;;;8.98;;
82990;SDS011;72806;50.832;4.864;2023-11-21T13:03:56;13.27;;;8.05;;
82990;SDS011;72806;50.832;4.864;2023-11-21T13:06:23;15.20;;;8.98;;
82990;SDS011;72806;50.832;4.864;2023-11-21T13:08:51;18.27;;;10.10;;
82990;SDS011;72806;50.832;4.864;2023-11-21T13:11:19;13.38;;;8.13;;
82990;SDS011;72806;50.832;4.864;2023-11-21T13:13:46;17.48;;;11.13;;
82990;SDS011;72806;50.832;4.864;2023-11-21T13:16:14;13.07;;;7.75;;
82990;SDS011;72806;50.832;4.864;2023-11-21T13:18:42;13.98;;;8.50;;
82990;SDS011;72806;50.832;4.864;2023-11-21T13:21:09;14.32;;;8.30;;
82990;SDS011;72806;50.832;4.864;2023-11-21T13:23:39;10.25;;;6.75;;
82990;SDS011;72806;50.832;4.864;2023-11-21T13:26:06;13.27;;;8.38;;
82990;SDS011;72806;50.832;4.864;2023-11-21T13:28:34;11.43;;;7.45;;
82990;SDS011;72806;50.832;4.864;2023-11-21T13:31:03;10.95;;;7.13;;
82990;SDS011;72806;50.832;4.864;2023-11-21T13:33:34;9.88;;;7.32;;
82990;SDS011;72806;50.832;4.864;2023-11-21T13:36:04;12.40;;;7.47;;
82990;SDS011;72806;50.832;4.864;2023-11-21T13:38:34;15.57;;;8.80;;
82990;SDS011;72806;50.832;4.864;2023-11-21T13:41:02;12.63;;;7.43;;
82990;SDS011;72806;50.832;4.864;2023-11-21T13:43:32;12.68;;;6.97;;
82990;SDS011;72806;50.832;4.864;2023-11-21T13:46:01;10.43;;;6.60;;
82990;SDS011;72806;50.832;4.864;2023-11-21T13:48:35;10.23;;;6.57;;
82990;SDS011;72806;50.832;4.864;2023-11-21T13:51:08;11.60;;;6.50;;
82990;SDS011;72806;50.832;4.864;2023-11-21T13:53:42;10.52;;;5.43;;
82990;SDS011;72806;50.832;4.864;2023-11-21T13:56:10;9.55;;;5.60;;
82990;SDS011;72806;50.832;4.864;2023-11-21T13:58:41;9.25;;;4.90;;
82990;SDS011;72806;50.832;4.864;2023-11-21T14:01:12;10.60;;;5.18;;
82990;SDS011;72806;50.832;4.864;2023-11-21T14:04:03;9.25;;;5.80;;
82990;SDS011;72806;50.832;4.864;2023-11-21T14:06:45;8.57;;;5.35;;
82990;SDS011;72806;50.832;4.864;2023-11-21T14:09:14;8.75;;;5.60;;
82990;SDS011;72806;50.832;4.864;2023-11-21T14:11:48;12.68;;;6.05;;
82990;SDS011;72806;50.832;4.864;2023-11-21T14:14:16;9.35;;;5.47;;
82990;SDS011;72806;50.832;4.864;2023-11-21T14:16:44;8.85;;;5.65;;
82990;SDS011;72806;50.832;4.864;2023-11-21T14:19:11;9.43;;;5.55;;
82990;SDS011;72806;50.832;4.864;2023-11-21T14:21:42;8.55;;;5.38;;
82990;SDS011;72806;50.832;4.864;2023-11-21T14:24:11;7.72;;;5.22;;
82990;SDS011;72806;50.832;4.864;2023-11-21T14:26:39;7.13;;;4.88;;
82990;SDS011;72806;50.832;4.864;2023-11-21T14:29:07;10.88;;;5.93;;
82990;SDS011;72806;50.832;4.864;2023-11-21T14:31:37;9.13;;;5.82;;
82990;SDS011;72806;50.832;4.864;2023-11-21T14:34:04;9.20;;;5.53;;
82990;SDS011;72806;50.832;4.864;2023-11-21T14:36:32;9.20;;;5.53;;
82990;SDS011;72806;50.832;4.864;2023-11-21T14:38:59;8.27;;;5.30;;